Sneeuw/IJzel/Bevriezing van: 15-12-2018 23:00 tot: 16-12-2018 07:00 waarschuwing voor: Sneeuw/IJzel/Bevriezing niveau: Geel info button
Kans op gladheid ten gevolge van sneeuw.Kans op gladheid.Alle verkeersdeelnemers kunnen hinder ondervinden.Pas uw rijgedrag aan.Volg weerberichten en waarschuwingen.



Onweer radar Meer informatie blitzortung!


waarschuwing voor winterse neerslag Meer informatie rain snow radar


Bezoek onze andere website:

Template documentation
and downloads

And another site



Select another period ( hide this area )

Eenheden Periode Custom range Directly to
Metrisch Engels Beide
Dagelijkse Wekelijkse Maandelijkse Jaarlijkse
use both date-selectors for a custom range
previous Dag
With this date

WeatherUnderground graphs for this period ( click here )


Dagelijkse Samenvatting Zaterdag 15 december 2018
Tijd Temp. ( °C ) Dew pt. ( °C ) Wind ( km/h ) van Windvlaag ( km/h ) Luchtdruk ( hPa ) Humid.( % ) Rainrate ( cm )
Hoog1,5 -1,2 13,0 Oosten ( 363/683 ) 6,8 1025,8 85 -
Gemiddeld1,2 -1,8 5,6 Oosten #74/122 2,8 1024,9 80 -
Laag0,8 -3,3 -   0,2 1024,1 72 -
Dagelijkse Tabular details for Zaterdag 15 december 2018
Tijd Temp. ( °C ) Dew pt. ( °C ) Wind ( km/h ) van Windvlaag ( km/h ) Luchtdruk ( hPa ) Humid.( % ) Rainrate ( cm )
00:04 1,2 -1,2 5,6 Oosten 4,2 1025,5 84 -
00:09 1,2 -1,2 6,4 Oosten 4,5 1025,5 84 -
00:14 1,2 -1,4 5,6 Oosten 3,1 1025,5 83 -
00:19 1,2 -1,5 1,9 Oosten 0,6 1025,6 82 -
00:24 1,2 -1,7 1,9 Oosten 1,4 1025,5 81 -
00:29 1,2 -2,0 5,6 Oosten 2,7 1025,7 79 -
00:34 1,3 -1,9 3,2 Oosten 1,6 1025,7 79 -
00:39 1,3 -2,1 3,7 Oosten 1,0 1025,7 78 -
00:44 1,3 -2,1 3,7 Oosten 2,3 1025,7 78 -
00:49 1,4 -2,2 5,6 Oosten 0,8 1025,6 77 -
00:54 1,4 -2,2 3,7 Oosten 1,0 1025,6 77 -
00:59 1,4 -2,2 3,7 Oosten 1,9 1025,7 77 -
01:04 1,4 -2,2 3,7 Oosten 0,3 1025,7 77 -
01:09 1,4 -2,2 3,7 Oosten 0,8 1025,7 77 -
01:14 1,4 -2,2   Kalm 0,2 1025,6 77 -
01:19 1,4 -2,2 1,9 Oosten 1,4 1025,7 77 -
01:24 1,4 -2,2 5,6 Oosten 2,7 1025,7 77 -
01:29 1,4 -2,2 3,2 Oosten 1,4 1025,7 77 -
01:34 1,4 -2,0 3,7 Oosten 1,8 1025,7 78 -
01:39 1,4 -2,0 3,7 Oosten 0,6 1025,7 78 -
01:44 1,5 -1,7 5,6 Oosten 0,3 1025,7 79 -
01:49 1,4 -1,8 5,6 Oosten 1,9 1025,8 79 -
01:54 1,5 -1,7 1,9 Oosten 0,8 1025,8 79 -
01:59 1,5 -1,7 5,6 Oosten 3,1 1025,7 79 -
02:04 1,4 -1,6 4,8 Oosten 2,1 1025,8 80 -
02:09 1,5 -1,6 5,6 Oosten 2,6 1025,7 80 -
02:14 1,4 -1,8 3,7 Oosten 1,3 1025,7 79 -
02:19 1,4 -2,1 1,9 Oosten 0,6 1025,7 78 -
02:24 1,4 -2,0 5,6 Oosten 2,4 1025,8 78 -
02:29 1,4 -1,8 3,7 Oosten 3,2 1025,8 79 -
02:34 1,4 -1,8 5,6 Oosten 1,4 1025,7 79 -
02:39 1,4 -1,6 1,9 Oosten 1,1 1025,6 80 -
02:44 1,4 -1,6 3,2 Oosten 2,4 1025,6 80 -
02:49 1,4 -1,7 5,6 Oosten 2,7 1025,6 80 -
02:54 1,3 -1,9 6,4 ONO 5,5 1025,6 79 -
02:59 1,3 -2,4 5,6 Oosten 2,4 1025,6 76 -
03:04 1,4 -2,2 5,6 Oosten 2,4 1025,4 77 -
03:09 1,5 -1,7 5,6 ONO 4,8 1025,3 79 -
03:14 1,4 -1,6 3,7 ONO 1,3 1025,3 80 -
03:19 1,4 -1,7 3,7 ONO 2,4 1025,2 80 -
03:24 1,4 -1,5 7,4 Oosten 2,1 1025,2 81 -
03:29 1,3 -1,6 5,6 Oosten 1,6 1025,2 81 -
03:34 1,3 -1,4 5,6 Oosten 2,7 1025,1 82 -
03:39 1,3 -1,4 5,6 ONO 3,5 1025,1 82 -
03:44 1,3 -1,4 5,6 Oosten 2,1 1025,0 82 -
03:49 1,3 -1,4 5,6 Oosten 4,5 1025,0 82 -
03:54 1,2 -1,3 6,4 OZO 4,2 1025,1 83 -
03:59 1,3 -1,3 5,6 Oosten 3,7 1025,0 83 -
04:04 1,2 -1,3 3,7 Oosten 2,6 1025,1 83 -
04:09 1,2 -1,3 3,7 Oosten 1,4 1025,0 83 -
04:14 1,2 -1,3 5,6 Oosten 2,6 1024,9 83 -
04:19 1,2 -1,2 5,6 Oosten 4,5 1024,9 84 -
04:24 1,2 -1,2 3,7 Oosten 2,6 1025,0 84 -
04:29 1,2 -1,2 5,6 OZO 4,8 1025,0 84 -
04:34 1,2 -1,2 11,1 Oosten 6,4 1025,0 84 -
04:39 1,2 -1,2 3,7 Oosten 1,6 1024,9 84 -
04:44 1,2 -1,2 5,6 Oosten 3,4 1025,0 84 -
04:49 1,2 -1,2 5,6 ONO 2,7 1024,8 84 -
04:54 1,2 -1,2 5,6 OZO 1,1 1024,9 84 -
04:59 1,2 -1,2 5,6 OZO 2,9 1024,9 84 -
05:04 1,1 -1,3 3,7 Oosten 2,7 1024,9 84 -
05:09 1,1 -1,3 3,7 Oosten 1,3 1024,9 84 -
05:14 1,1 -1,3 3,7 Oosten 1,8 1024,9 84 -
05:19 1,1 -1,3 5,6 Oosten 3,5 1024,8 84 -
05:24 1,1 -1,3 5,6 ONO 1,6 1024,8 84 -
05:29 1,1 -1,3 6,4 ONO 3,1 1024,8 84 -
05:34 1,1 -1,3 5,6 Oosten 1,4 1024,8 84 -
05:39 1,1 -1,3 5,6 Oosten 3,4 1024,8 84 -
05:44 1,1 -1,3 7,4 OZO 4,0 1024,8 84 -
05:49 1,1 -1,3 9,3 Oosten 3,2 1024,7 84 -
05:54 1,1 -1,3 5,6 ONO 4,0 1024,6 84 -
05:59 1,1 -1,3 3,7 OZO 2,7 1024,6 84 -
06:04 1,1 -1,3 11,1 ONO 4,8 1024,7 84 -
06:09 1,1 -1,3 5,6 ONO 2,9 1024,6 84 -
06:14 1,1 -1,2 3,7 ONO 1,8 1024,6 85 -
06:19 1,1 -1,2 3,7 Oosten 3,2 1024,6 85 -
06:24 1,1 -1,2 5,6 Oosten 1,8 1024,6 85 -
06:29 1,1 -1,2 5,6 Oosten 1,0 1024,6 85 -
06:34 1,1 -1,3 5,6 Oosten 4,7 1024,5 84 -
06:39 1,1 -1,2 5,6 Oosten 3,9 1024,5 85 -
06:44 1,0 -1,2 5,6 Oosten 3,2 1024,5 85 -
06:49 1,0 -1,4 11,1 ONO 4,5 1024,5 84 -
06:54 1,0 -1,4 8,0 ONO 4,5 1024,4 84 -
06:59 1,0 -1,4 5,6 Oosten 6,0 1024,4 84 -
07:04 1,0 -1,4 5,6 Oosten 2,9 1024,4 84 -
07:09 0,9 -1,4 5,6 Oosten 2,3 1024,4 84 -
07:14 0,9 -1,4 5,6 Oosten 1,6 1024,3 84 -
07:19 0,9 -1,5 3,7 Oosten 1,1 1024,3 84 -
07:24 0,9 -1,5 3,7 Oosten 2,4 1024,3 84 -
07:29 0,9 -1,5 3,7 Oosten 2,3 1024,4 84 -
07:34 0,8 -1,6 5,6 OZO 2,9 1024,4 84 -
07:39 0,8 -1,7 11,1 ZO 3,2 1024,4 83 -
07:44 0,8 -1,7 5,6 OZO 1,0 1024,3 83 -
07:49 0,9 -1,8 5,6 OZO 2,3 1024,3 82 -
07:54 0,9 -1,8 5,6 OZO 4,8 1024,3 82 -
07:59 0,9 -1,9 5,6 OZO 1,8 1024,2 81 -
08:04 0,9 -2,1 5,6 ZZO 2,9 1024,2 80 -
08:09 1,0 -2,2 13,0 OZO 4,2 1024,2 79 -
08:14 1,0 -2,4 7,4 Oosten 3,1 1024,2 78 -
08:19 1,1 -2,6 13,0 ONO 5,3 1024,2 77 -
08:24 1,1 -2,6 5,6 ZO 4,2 1024,1 77 -
08:29 1,1 -2,6 5,6 ZZW 4,5 1024,2 77 -
08:34 1,1 -2,7 8,0 Zuiden 2,9 1024,3 76 -
08:39 1,1 -2,7 4,8 Oosten 1,9 1024,3 76 -
08:44 1,1 -2,8 5,6 OZO 3,7 1024,3 75 -
08:49 1,1 -2,8 5,6 ONO 3,4 1024,3 75 -
08:54 1,1 -3,0 5,6 ZO 3,9 1024,4 74 -
08:59 1,2 -2,9 5,6 OZO 2,7 1024,3 74 -
09:04 1,2 -2,9 9,3 ZZO 5,0 1024,4 74 -
09:09 1,2 -2,9 7,4 Oosten 3,2 1024,5 74 -
09:14 1,2 -2,9 5,6 Oosten 3,2 1024,6 74 -
09:19 1,2 -2,9 5,6 OZO 2,3 1024,6 74 -
09:24 1,2 -2,9 5,6 ONO 2,6 1024,6 74 -
09:29 1,2 -2,9 5,6 OZO 2,6 1024,6 74 -
09:34 1,2 -2,9 13,0 OZO 4,7 1024,5 74 -
09:39 1,1 -3,2 7,4 OZO 2,9 1024,5 73 -
09:44 1,1 -3,2 9,3 Oosten 2,6 1024,5 73 -
09:49 1,2 -3,2 1,9 NNO 5,8 1024,5 73 -
09:54 1,2 -3,2 8,0 ZZO 6,1 1024,4 73 -
09:59 1,2 -3,2 11,1 NO 6,0 1024,4 73 -
10:04 1,2 -3,2 5,6 ZZW 4,5 1024,4 73 -
10:09 1,2 -3,3 13,0 ZZW 6,8 1024,3 72 -
Dagelijkse Samenvatting Zaterdag 15 december 2018
Tijd Temp. ( °C ) Dew pt. ( °C ) Wind ( km/h ) van Windvlaag ( km/h ) Luchtdruk ( hPa ) Humid.( % ) Rainrate ( cm )
Hoog1,5 -1,2 13,0 Oosten ( 363/683 ) 6,8 1025,8 85 -
Gemiddeld1,2 -1,8 5,6 Oosten #74/122 2,8 1024,9 80 -
Laag0,8 -3,3 -   0,2 1024,1 72 -
Dagelijkse Tabular details for Zaterdag 15 december 2018
Tijd Temp. ( °C ) Dew pt. ( °C ) Wind ( km/h ) van Windvlaag ( km/h ) Luchtdruk ( hPa ) Humid.( % ) Rainrate ( cm )
00:04 1,2 -1,2 5,6 Oosten 4,2 1025,5 84 -
00:09 1,2 -1,2 6,4 Oosten 4,5 1025,5 84 -
00:14 1,2 -1,4 5,6 Oosten 3,1 1025,5 83 -
00:19 1,2 -1,5 1,9 Oosten 0,6 1025,6 82 -
00:24 1,2 -1,7 1,9 Oosten 1,4 1025,5 81 -
00:29 1,2 -2,0 5,6 Oosten 2,7 1025,7 79 -
00:34 1,3 -1,9 3,2 Oosten 1,6 1025,7 79 -
00:39 1,3 -2,1 3,7 Oosten 1,0 1025,7 78 -
00:44 1,3 -2,1 3,7 Oosten 2,3 1025,7 78 -
00:49 1,4 -2,2 5,6 Oosten 0,8 1025,6 77 -
00:54 1,4 -2,2 3,7 Oosten 1,0 1025,6 77 -
00:59 1,4 -2,2 3,7 Oosten 1,9 1025,7 77 -
01:04 1,4 -2,2 3,7 Oosten 0,3 1025,7 77 -
01:09 1,4 -2,2 3,7 Oosten 0,8 1025,7 77 -
01:14 1,4 -2,2   Kalm 0,2 1025,6 77 -
01:19 1,4 -2,2 1,9 Oosten 1,4 1025,7 77 -
01:24 1,4 -2,2 5,6 Oosten 2,7 1025,7 77 -
01:29 1,4 -2,2 3,2 Oosten 1,4 1025,7 77 -
01:34 1,4 -2,0 3,7 Oosten 1,8 1025,7 78 -
01:39 1,4 -2,0 3,7 Oosten 0,6 1025,7 78 -
01:44 1,5 -1,7 5,6 Oosten 0,3 1025,7 79 -
01:49 1,4 -1,8 5,6 Oosten 1,9 1025,8 79 -
01:54 1,5 -1,7 1,9 Oosten 0,8 1025,8 79 -
01:59 1,5 -1,7 5,6 Oosten 3,1 1025,7 79 -
02:04 1,4 -1,6 4,8 Oosten 2,1 1025,8 80 -
02:09 1,5 -1,6 5,6 Oosten 2,6 1025,7 80 -
02:14 1,4 -1,8 3,7 Oosten 1,3 1025,7 79 -
02:19 1,4 -2,1 1,9 Oosten 0,6 1025,7 78 -
02:24 1,4 -2,0 5,6 Oosten 2,4 1025,8 78 -
02:29 1,4 -1,8 3,7 Oosten 3,2 1025,8 79 -
02:34 1,4 -1,8 5,6 Oosten 1,4 1025,7 79 -
02:39 1,4 -1,6 1,9 Oosten 1,1 1025,6 80 -
02:44 1,4 -1,6 3,2 Oosten 2,4 1025,6 80 -
02:49 1,4 -1,7 5,6 Oosten 2,7 1025,6 80 -
02:54 1,3 -1,9 6,4 ONO 5,5 1025,6 79 -
02:59 1,3 -2,4 5,6 Oosten 2,4 1025,6 76 -
03:04 1,4 -2,2 5,6 Oosten 2,4 1025,4 77 -
03:09 1,5 -1,7 5,6 ONO 4,8 1025,3 79 -
03:14 1,4 -1,6 3,7 ONO 1,3 1025,3 80 -
03:19 1,4 -1,7 3,7 ONO 2,4 1025,2 80 -
03:24 1,4 -1,5 7,4 Oosten 2,1 1025,2 81 -
03:29 1,3 -1,6 5,6 Oosten 1,6 1025,2 81 -
03:34 1,3 -1,4 5,6 Oosten 2,7 1025,1 82 -
03:39 1,3 -1,4 5,6 ONO 3,5 1025,1 82 -
03:44 1,3 -1,4 5,6 Oosten 2,1 1025,0 82 -
03:49 1,3 -1,4 5,6 Oosten 4,5 1025,0 82 -
03:54 1,2 -1,3 6,4 OZO 4,2 1025,1 83 -
03:59 1,3 -1,3 5,6 Oosten 3,7 1025,0 83 -
04:04 1,2 -1,3 3,7 Oosten 2,6 1025,1 83 -
04:09 1,2 -1,3 3,7 Oosten 1,4 1025,0 83 -
04:14 1,2 -1,3 5,6 Oosten 2,6 1024,9 83 -
04:19 1,2 -1,2 5,6 Oosten 4,5 1024,9 84 -
04:24 1,2 -1,2 3,7 Oosten 2,6 1025,0 84 -
04:29 1,2 -1,2 5,6 OZO 4,8 1025,0 84 -
04:34 1,2 -1,2 11,1 Oosten 6,4 1025,0 84 -
04:39 1,2 -1,2 3,7 Oosten 1,6 1024,9 84 -
04:44 1,2 -1,2 5,6 Oosten 3,4 1025,0 84 -
04:49 1,2 -1,2 5,6 ONO 2,7 1024,8 84 -
04:54 1,2 -1,2 5,6 OZO 1,1 1024,9 84 -
04:59 1,2 -1,2 5,6 OZO 2,9 1024,9 84 -
05:04 1,1 -1,3 3,7 Oosten 2,7 1024,9 84 -
05:09 1,1 -1,3 3,7 Oosten 1,3 1024,9 84 -
05:14 1,1 -1,3 3,7 Oosten 1,8 1024,9 84 -
05:19 1,1 -1,3 5,6 Oosten 3,5 1024,8 84 -
05:24 1,1 -1,3 5,6 ONO 1,6 1024,8 84 -
05:29 1,1 -1,3 6,4 ONO 3,1 1024,8 84 -
05:34 1,1 -1,3 5,6 Oosten 1,4 1024,8 84 -
05:39 1,1 -1,3 5,6 Oosten 3,4 1024,8 84 -
05:44 1,1 -1,3 7,4 OZO 4,0 1024,8 84 -
05:49 1,1 -1,3 9,3 Oosten 3,2 1024,7 84 -
05:54 1,1 -1,3 5,6 ONO 4,0 1024,6 84 -
05:59 1,1 -1,3 3,7 OZO 2,7 1024,6 84 -
06:04 1,1 -1,3 11,1 ONO 4,8 1024,7 84 -
06:09 1,1 -1,3 5,6 ONO 2,9 1024,6 84 -
06:14 1,1 -1,2 3,7 ONO 1,8 1024,6 85 -
06:19 1,1 -1,2 3,7 Oosten 3,2 1024,6 85 -
06:24 1,1 -1,2 5,6 Oosten 1,8 1024,6 85 -
06:29 1,1 -1,2 5,6 Oosten 1,0 1024,6 85 -
06:34 1,1 -1,3 5,6 Oosten 4,7 1024,5 84 -
06:39 1,1 -1,2 5,6 Oosten 3,9 1024,5 85 -
06:44 1,0 -1,2 5,6 Oosten 3,2 1024,5 85 -
06:49 1,0 -1,4 11,1 ONO 4,5 1024,5 84 -
06:54 1,0 -1,4 8,0 ONO 4,5 1024,4 84 -
06:59 1,0 -1,4 5,6 Oosten 6,0 1024,4 84 -
07:04 1,0 -1,4 5,6 Oosten 2,9 1024,4 84 -
07:09 0,9 -1,4 5,6 Oosten 2,3 1024,4 84 -
07:14 0,9 -1,4 5,6 Oosten 1,6 1024,3 84 -
07:19 0,9 -1,5 3,7 Oosten 1,1 1024,3 84 -
07:24 0,9 -1,5 3,7 Oosten 2,4 1024,3 84 -
07:29 0,9 -1,5 3,7 Oosten 2,3 1024,4 84 -
07:34 0,8 -1,6 5,6 OZO 2,9 1024,4 84 -
07:39 0,8 -1,7 11,1 ZO 3,2 1024,4 83 -
07:44 0,8 -1,7 5,6 OZO 1,0 1024,3 83 -
07:49 0,9 -1,8 5,6 OZO 2,3 1024,3 82 -
07:54 0,9 -1,8 5,6 OZO 4,8 1024,3 82 -
07:59 0,9 -1,9 5,6 OZO 1,8 1024,2 81 -
08:04 0,9 -2,1 5,6 ZZO 2,9 1024,2 80 -
08:09 1,0 -2,2 13,0 OZO 4,2 1024,2 79 -
08:14 1,0 -2,4 7,4 Oosten 3,1 1024,2 78 -
08:19 1,1 -2,6 13,0 ONO 5,3 1024,2 77 -
08:24 1,1 -2,6 5,6 ZO 4,2 1024,1 77 -
08:29 1,1 -2,6 5,6 ZZW 4,5 1024,2 77 -
08:34 1,1 -2,7 8,0 Zuiden 2,9 1024,3 76 -
08:39 1,1 -2,7 4,8 Oosten 1,9 1024,3 76 -
08:44 1,1 -2,8 5,6 OZO 3,7 1024,3 75 -
08:49 1,1 -2,8 5,6 ONO 3,4 1024,3 75 -
08:54 1,1 -3,0 5,6 ZO 3,9 1024,4 74 -
08:59 1,2 -2,9 5,6 OZO 2,7 1024,3 74 -
09:04 1,2 -2,9 9,3 ZZO 5,0 1024,4 74 -
09:09 1,2 -2,9 7,4 Oosten 3,2 1024,5 74 -
09:14 1,2 -2,9 5,6 Oosten 3,2 1024,6 74 -
09:19 1,2 -2,9 5,6 OZO 2,3 1024,6 74 -
09:24 1,2 -2,9 5,6 ONO 2,6 1024,6 74 -
09:29 1,2 -2,9 5,6 OZO 2,6 1024,6 74 -
09:34 1,2 -2,9 13,0 OZO 4,7 1024,5 74 -
09:39 1,1 -3,2 7,4 OZO 2,9 1024,5 73 -
09:44 1,1 -3,2 9,3 Oosten 2,6 1024,5 73 -
09:49 1,2 -3,2 1,9 NNO 5,8 1024,5 73 -
09:54 1,2 -3,2 8,0 ZZO 6,1 1024,4 73 -
09:59 1,2 -3,2 11,1 NO 6,0 1024,4 73 -
10:04 1,2 -3,2 5,6 ZZW 4,5 1024,4 73 -
10:09 1,2 -3,3 13,0 ZZW 6,8 1024,3 72 -

Download your copy of this data-set  here

Our weather-data as stored at Weather Underground. Script ontwikkeld door Jim McMurry. Aangepast voor de template door Leuven-Template.eu

U vindt ons ook hier:

Het Weer Aktueel

European Weather Network

Weather Underground

Benelux Weer Netwerk

Citizen Weather Observer Program (CWOP)

Apparatuur in gebruik:

Weerstation
Davis VP2

Weerprogramma
Weather Display

Weercomputer
My Computer

Webleverancier
WeservIT

Davis VP2

Weather Display

My Computer

WeservIT